Time;durP1;ratioP1;P1;durP2;ratioP2;P2;SDS_P1;SDS_P2;PMS_P1;PMS_P2;Temp;Humidity;BMP_temperature;BMP_pressure;BME280_temperature;BME280_humidity;BME280_pressure;Samples;Min_cycle;Max_cycle;Signal;HPM_P1;HPM_P2
2022/02/26 00:01:41;;;;;;;12.03;3.30;;;2.70;99.90;;;;;;5009307;28;20463;-72
2022/02/26 00:04:08;;;;;;;5.70;2.67;;;2.60;99.90;;;;;;5041268;28;20480;-72
2022/02/26 00:06:35;;;;;;;10.50;2.33;;;2.60;99.90;;;;;;5027258;28;20468;-72
2022/02/26 00:09:06;;;;;;;6.67;2.67;;;2.60;99.90;;;;;;5026380;28;20455;-73
2022/02/26 00:11:33;;;;;;;3.47;2.97;;;2.60;99.90;;;;;;5009141;28;20484;-71
2022/02/26 00:14:01;;;;;;;2.73;2.20;;;2.60;99.90;;;;;;5040237;28;20427;-72
2022/02/26 00:16:27;;;;;;;10.33;3.10;;;2.60;99.90;;;;;;5029539;28;20915;-72
2022/02/26 00:18:55;;;;;;;7.83;2.90;;;2.70;99.90;;;;;;5033634;28;20535;-73
2022/02/26 00:21:21;;;;;;;5.67;2.63;;;2.80;99.90;;;;;;5051202;28;20270;-73
2022/02/26 00:23:52;;;;;;;4.90;2.60;;;2.80;99.90;;;;;;5050686;28;20428;-72
2022/02/26 00:26:22;;;;;;;5.43;3.23;;;2.90;99.90;;;;;;5051248;28;20181;-72
2022/02/26 00:28:48;;;;;;;5.50;2.17;;;2.90;99.90;;;;;;5051884;28;20416;-73
2022/02/26 00:31:15;;;;;;;4.80;2.60;;;2.90;99.90;;;;;;5033409;28;20512;-73
2022/02/26 00:33:41;;;;;;;13.27;2.70;;;3.00;99.90;;;;;;5051253;28;20423;-73
2022/02/26 00:36:09;;;;;;;11.90;2.80;;;3.00;99.90;;;;;;5051403;28;20408;-73
2022/02/26 00:38:35;;;;;;;5.33;2.90;;;3.10;99.90;;;;;;5051687;28;20634;-73
2022/02/26 00:41:06;;;;;;;7.00;3.10;;;3.10;99.90;;;;;;5050560;28;20424;-73
2022/02/26 00:43:32;;;;;;;12.83;3.03;;;3.20;99.90;;;;;;5051155;28;20205;-73
2022/02/26 00:45:58;;;;;;;5.43;2.60;;;3.20;99.90;;;;;;5021108;28;20493;-73
2022/02/26 00:49:46;;;;;;;7.53;2.90;;;3.20;99.90;;;;;;5001326;28;21021;-73
2022/02/26 00:51:09;;;;;;;8.17;2.67;;;3.20;99.90;;;;;;5003798;28;20317;-73
2022/02/26 00:53:35;;;;;;;7.53;2.80;;;3.20;99.90;;;;;;5014695;28;21040;-72
2022/02/26 00:56:01;;;;;;;8.43;2.93;;;3.20;99.90;;;;;;5027091;28;20421;-72
2022/02/26 00:58:26;;;;;;;10.33;2.90;;;3.30;99.90;;;;;;5028177;28;20175;-72
2022/02/26 05:31:52;;;;;;;15.03;5.90;;;2.50;99.90;;;;;;5545797;22;20504;-72
2022/02/26 05:34:17;;;;;;;12.00;6.40;;;2.50;99.90;;;;;;4981039;28;20419;-72
2022/02/26 05:36:43;;;;;;;16.97;7.93;;;2.50;99.90;;;;;;4991112;28;20199;-74
2022/02/26 05:39:09;;;;;;;14.90;6.57;;;2.50;99.90;;;;;;4991080;28;20177;-74
2022/02/26 05:41:36;;;;;;;17.30;7.13;;;2.50;99.90;;;;;;4989407;28;20802;-74
2022/02/26 05:44:01;;;;;;;11.93;6.50;;;2.50;99.90;;;;;;4990601;28;20413;-70
2022/02/26 05:46:27;;;;;;;12.50;6.00;;;2.50;99.90;;;;;;4991653;28;20386;-75
2022/02/26 05:48:53;;;;;;;11.00;6.37;;;2.50;99.90;;;;;;4991270;28;20777;-73
2022/02/26 05:51:18;;;;;;;11.87;6.90;;;2.50;99.90;;;;;;4991265;28;20246;-74
2022/02/26 05:53:44;;;;;;;15.47;6.43;;;2.50;99.90;;;;;;4990770;28;20547;-74
2022/02/26 05:56:09;;;;;;;20.53;6.30;;;2.50;99.90;;;;;;4991061;28;20635;-75
2022/02/26 05:58:35;;;;;;;18.20;7.50;;;2.50;99.90;;;;;;4991092;28;20239;-74
2022/02/26 06:01:00;;;;;;;16.93;7.33;;;2.50;99.90;;;;;;4989691;28;20296;-75
2022/02/26 06:03:26;;;;;;;14.53;7.47;;;2.50;99.90;;;;;;4988868;28;20190;-76
2022/02/26 06:05:51;;;;;;;22.93;6.87;;;2.50;99.90;;;;;;4990359;28;20180;-75
2022/02/26 06:08:17;;;;;;;17.60;8.00;;;2.60;99.90;;;;;;4990357;28;20279;-75
2022/02/26 06:10:43;;;;;;;18.93;8.50;;;2.60;99.90;;;;;;4989688;28;20260;-75
2022/02/26 06:13:08;;;;;;;13.30;6.87;;;2.70;99.90;;;;;;4990000;28;20181;-75
2022/02/26 06:15:34;;;;;;;22.00;7.47;;;2.60;99.90;;;;;;4990038;28;20187;-74
2022/02/26 06:17:59;;;;;;;14.30;6.80;;;2.60;99.90;;;;;;4990591;28;20658;-73
2022/02/26 06:20:25;;;;;;;16.30;7.40;;;2.60;99.90;;;;;;4990157;28;20644;-75
2022/02/26 06:22:50;;;;;;;13.90;7.10;;;2.60;99.90;;;;;;4988905;28;20228;-74
2022/02/26 06:25:16;;;;;;;18.53;7.80;;;2.60;99.90;;;;;;4990203;28;20184;-74
2022/02/26 06:27:43;;;;;;;12.07;7.57;;;2.60;99.90;;;;;;4990429;28;20175;-75
2022/02/26 06:30:10;;;;;;;19.30;8.47;;;2.60;99.90;;;;;;4990258;28;20929;-75
2022/02/26 06:32:36;;;;;;;12.00;7.00;;;2.60;99.90;;;;;;4989225;28;20451;-75
2022/02/26 06:35:03;;;;;;;14.73;6.80;;;2.70;99.90;;;;;;4980130;28;20505;-75
2022/02/26 06:37:28;;;;;;;15.53;8.10;;;2.70;99.90;;;;;;4970488;28;20483;-76
2022/02/26 06:39:54;;;;;;;15.20;7.20;;;2.70;99.90;;;;;;4974293;28;20425;-75
2022/02/26 06:42:20;;;;;;;21.07;7.70;;;2.80;99.90;;;;;;4956552;28;20197;-75
2022/02/26 06:44:46;;;;;;;20.27;8.97;;;2.80;99.90;;;;;;4973078;28;20177;-75
2022/02/26 06:47:12;;;;;;;14.63;7.90;;;2.80;99.90;;;;;;4974174;28;20256;-74
2022/02/26 06:49:37;;;;;;;14.00;7.20;;;2.80;99.90;;;;;;4973914;28;20498;-75
2022/02/26 06:52:03;;;;;;;16.20;8.30;;;2.90;99.90;;;;;;4955828;28;20215;-73
2022/02/26 06:54:29;;;;;;;20.43;7.27;;;3.00;99.90;;;;;;4973342;28;20296;-75
2022/02/26 06:56:54;;;;;;;14.60;7.47;;;3.00;99.90;;;;;;4973800;28;20420;-75
2022/02/26 06:59:20;;;;;;;16.50;7.43;;;3.00;99.90;;;;;;4974045;28;20173;-74
2022/02/26 07:01:46;;;;;;;17.77;7.83;;;3.00;99.90;;;;;;4973743;28;20732;-76
2022/02/26 07:04:13;;;;;;;22.77;7.87;;;3.10;99.90;;;;;;4972655;28;20183;-75
2022/02/26 07:06:42;;;;;;;15.67;7.57;;;3.20;99.90;;;;;;4974117;28;20477;-75
2022/02/26 07:09:14;;;;;;;16.83;7.67;;;3.20;99.90;;;;;;4973865;28;20418;-75
2022/02/26 07:11:41;;;;;;;16.60;8.03;;;3.20;99.90;;;;;;4973074;28;20475;-75
2022/02/26 07:14:07;;;;;;;8.33;5.80;;;3.20;99.90;;;;;;4973374;28;20424;-76
2022/02/26 07:16:33;;;;;;;13.33;6.97;;;3.30;99.90;;;;;;4973611;28;20910;-75
2022/02/26 07:19:00;;;;;;;18.50;8.67;;;3.30;99.90;;;;;;4974095;28;20410;-75
2022/02/26 07:21:26;;;;;;;15.37;8.00;;;3.30;99.90;;;;;;4973674;28;20215;-75
2022/02/26 07:23:53;;;;;;;14.57;6.97;;;3.40;99.90;;;;;;4972376;28;20413;-75
2022/02/26 07:26:19;;;;;;;13.00;7.23;;;3.40;99.90;;;;;;4973537;28;20261;-75
2022/02/26 07:28:44;;;;;;;15.73;7.73;;;3.40;99.90;;;;;;4974054;28;20520;-75
2022/02/26 07:31:10;;;;;;;18.50;7.20;;;3.50;99.90;;;;;;4973163;28;20217;-75
2022/02/26 07:33:35;;;;;;;14.30;8.40;;;3.50;99.90;;;;;;4972886;28;20614;-75
2022/02/26 07:36:01;;;;;;;15.47;8.10;;;3.60;99.90;;;;;;4973415;28;20182;-75
2022/02/26 07:38:26;;;;;;;16.57;7.67;;;3.50;99.90;;;;;;4972678;28;20189;-75
2022/02/26 07:40:52;;;;;;;19.30;7.47;;;3.50;99.90;;;;;;4973265;28;20186;-74
2022/02/26 07:43:17;;;;;;;9.43;6.00;;;3.60;99.90;;;;;;4972405;28;20239;-75
2022/02/26 07:45:43;;;;;;;13.57;7.23;;;3.70;99.90;;;;;;4973037;28;20236;-75
2022/02/26 07:48:08;;;;;;;17.20;7.90;;;3.70;99.90;;;;;;4955885;28;20669;-75
2022/02/26 07:50:34;;;;;;;11.43;6.87;;;3.70;99.90;;;;;;4971977;28;20207;-74
2022/02/26 07:52:59;;;;;;;14.27;6.83;;;3.90;99.90;;;;;;4972401;28;20177;-74
2022/02/26 07:55:25;;;;;;;14.33;6.50;;;3.90;99.90;;;;;;4972741;28;20182;-75
2022/02/26 07:57:51;;;;;;;11.53;7.03;;;3.90;99.90;;;;;;4972989;28;20184;-74
2022/02/26 08:00:17;;;;;;;18.20;8.00;;;4.00;99.90;;;;;;4972897;28;20171;-74
2022/02/26 08:02:44;;;;;;;19.73;9.00;;;4.00;99.90;;;;;;4972145;28;20445;-75
2022/02/26 08:05:09;;;;;;;15.73;7.63;;;4.10;99.90;;;;;;4972457;28;20523;-75
2022/02/26 08:07:35;;;;;;;20.20;8.27;;;4.10;99.90;;;;;;4972770;28;20428;-75
2022/02/26 08:10:01;;;;;;;12.47;7.63;;;4.20;99.90;;;;;;4972597;28;20663;-75
2022/02/26 08:12:26;;;;;;;15.40;7.60;;;4.20;99.90;;;;;;4971990;28;20748;-75
2022/02/26 08:14:51;;;;;;;11.17;6.97;;;4.20;99.90;;;;;;4974892;28;20193;-75
2022/02/26 08:17:17;;;;;;;20.07;8.57;;;4.30;99.90;;;;;;4988252;28;20244;-74
2022/02/26 08:19:43;;;;;;;15.10;6.77;;;4.30;99.90;;;;;;4982179;28;20242;-75
2022/02/26 08:22:08;;;;;;;15.03;8.57;;;4.40;99.90;;;;;;4972561;28;20763;-75
2022/02/26 08:24:35;;;;;;;9.43;7.73;;;4.40;99.90;;;;;;4971105;28;20714;-75
2022/02/26 08:27:01;;;;;;;21.80;8.77;;;4.40;99.90;;;;;;4972356;28;20240;-75
2022/02/26 08:29:27;;;;;;;16.57;7.80;;;4.40;99.90;;;;;;4972189;28;20422;-75
2022/02/26 08:31:52;;;;;;;16.03;7.90;;;4.50;99.90;;;;;;4954194;28;20631;-74
2022/02/26 08:34:18;;;;;;;15.70;7.00;;;4.60;99.90;;;;;;4971408;28;20181;-75
2022/02/26 08:36:44;;;;;;;16.60;7.87;;;4.60;99.90;;;;;;4972483;28;20179;-74
2022/02/26 08:39:10;;;;;;;27.77;14.40;;;4.90;99.90;;;;;;4975759;28;20189;-74
2022/02/26 08:41:35;;;;;;;18.23;8.27;;;5.10;99.90;;;;;;4992000;28;20453;-74
2022/02/26 08:44:01;;;;;;;15.07;7.57;;;5.10;99.90;;;;;;5010171;28;20514;-74
2022/02/26 08:46:26;;;;;;;15.10;7.47;;;5.50;99.90;;;;;;4998013;28;20186;-74
2022/02/26 08:48:54;;;;;;;15.40;6.93;;;6.10;99.90;;;;;;4998932;28;20174;-74
2022/02/26 08:51:19;;;;;;;15.17;6.67;;;6.50;99.90;;;;;;5004347;28;20239;-75
2022/02/26 08:53:45;;;;;;;14.20;7.77;;;7.20;99.90;;;;;;5000296;28;20445;-75
2022/02/26 08:56:10;;;;;;;17.50;7.20;;;7.40;99.90;;;;;;4988886;28;20693;-74
2022/02/26 08:58:36;;;;;;;13.67;7.63;;;7.30;99.90;;;;;;4990390;28;20188;-74
2022/02/26 09:01:02;;;;;;;14.90;6.67;;;7.20;99.90;;;;;;4995093;28;20213;-75
2022/02/26 09:03:28;;;;;;;11.27;5.00;;;7.10;99.90;;;;;;4987113;28;20570;-75
2022/02/26 09:05:53;;;;;;;15.47;5.60;;;7.10;99.90;;;;;;4978736;28;20471;-75
2022/02/26 09:08:19;;;;;;;11.33;6.10;;;7.10;99.90;;;;;;4983293;28;20230;-75
2022/02/26 09:10:44;;;;;;;14.33;5.80;;;7.40;99.90;;;;;;4977753;28;20219;-74
2022/02/26 09:13:10;;;;;;;14.00;6.20;;;7.40;99.90;;;;;;4977232;28;20182;-74
2022/02/26 09:15:36;;;;;;;11.00;5.73;;;7.40;99.90;;;;;;4979989;28;20619;-74
2022/02/26 09:18:01;;;;;;;16.40;7.07;;;7.10;99.90;;;;;;4980083;28;20185;-74
2022/02/26 09:20:27;;;;;;;14.90;8.30;;;6.90;99.90;;;;;;4978054;28;20217;-75
2022/02/26 09:22:53;;;;;;;11.57;6.10;;;6.80;99.90;;;;;;4963719;28;20202;-75
2022/02/26 09:25:18;;;;;;;9.23;5.80;;;6.70;99.90;;;;;;4973665;28;20251;-75
2022/02/26 09:27:44;;;;;;;6.40;4.63;;;7.30;99.90;;;;;;4965552;28;20730;-74
2022/02/26 09:30:11;;;;;;;9.77;5.40;;;7.60;99.90;;;;;;4963346;28;20224;-75
2022/02/26 09:32:37;;;;;;;8.73;5.17;;;7.90;99.90;;;;;;4964780;28;20476;-75
2022/02/26 09:35:04;;;;;;;18.10;6.13;;;8.20;99.90;;;;;;4957515;28;20478;-74
2022/02/26 09:37:30;;;;;;;14.90;6.37;;;8.20;99.90;;;;;;4972596;28;20215;-75
2022/02/26 09:39:58;;;;;;;12.60;5.87;;;7.60;99.90;;;;;;4982260;28;20449;-74
2022/02/26 09:42:29;;;;;;;10.60;6.13;;;7.80;99.90;;;;;;4962839;28;20209;-75
2022/02/26 09:44:55;;;;;;;11.33;4.73;;;8.40;99.90;;;;;;4961066;28;20505;-75
2022/02/26 09:47:21;;;;;;;17.33;4.80;;;8.70;99.90;;;;;;4955950;28;20490;-76
2022/02/26 09:49:47;;;;;;;5.60;2.80;;;8.50;99.90;;;;;;4952714;28;21016;-76
2022/02/26 09:52:15;;;;;;;5.53;2.70;;;9.00;99.90;;;;;;4954178;28;20579;-75
2022/02/26 09:54:41;;;;;;;4.07;2.43;;;9.50;99.90;;;;;;4965600;28;20459;-76
2022/02/26 09:57:06;;;;;;;7.03;2.97;;;10.00;99.90;;;;;;4980642;28;20469;-75
2022/02/26 09:59:32;;;;;;;9.20;1.80;;;10.10;99.90;;;;;;4962279;28;20584;-75
2022/02/26 10:02:17;;;;;;;7.20;2.83;;;10.00;99.90;;;;;;4961522;28;20677;-75
2022/02/26 10:04:54;;;;;;;9.07;2.80;;;10.00;99.90;;;;;;4978319;28;20579;-74
2022/02/26 10:07:22;;;;;;;4.10;2.03;;;9.20;99.90;;;;;;4976933;28;20512;-75
2022/02/26 10:09:48;;;;;;;8.03;1.70;;;8.70;99.90;;;;;;4964952;28;20543;-76
2022/02/26 10:12:27;;;;;;;2.13;0.90;;;8.70;99.90;;;;;;4965953;28;20477;-76
2022/02/26 10:14:57;;;;;;;5.37;1.60;;;8.70;99.90;;;;;;4962564;28;20889;-75
2022/02/26 10:17:31;;;;;;;5.17;0.73;;;8.30;99.90;;;;;;4967805;28;20942;-75
2022/02/26 10:20:07;;;;;;;4.33;1.27;;;8.20;99.90;;;;;;4968939;28;20466;-75
2022/02/26 10:22:33;;;;;;;7.70;1.43;;;7.60;99.90;;;;;;4964884;28;20950;-75
2022/02/26 10:25:11;;;;;;;4.90;1.20;;;7.50;99.90;;;;;;4966057;28;20428;-75
2022/02/26 10:27:45;;;;;;;5.27;1.63;;;7.90;99.90;;;;;;4965359;28;20433;-75
2022/02/26 10:30:21;;;;;;;6.87;2.37;;;7.90;99.90;;;;;;4967467;28;20787;-75
2022/02/26 10:33:07;;;;;;;7.63;1.90;;;7.70;99.90;;;;;;4987245;28;20464;-75
2022/02/26 10:35:45;;;;;;;2.63;1.70;;;7.40;99.90;;;;;;4983920;28;20429;-75
2022/02/26 10:38:19;;;;;;;5.67;2.00;;;7.10;99.90;;;;;;4965223;28;20432;-74
2022/02/26 10:40:53;;;;;;;9.40;1.60;;;7.50;99.90;;;;;;4989715;28;20797;-76
2022/02/26 10:43:48;;;;;;;8.53;2.17;;;7.90;99.90;;;;;;4966027;28;20433;-75
2022/02/26 10:46:27;;;;;;;4.90;1.87;;;7.70;99.90;;;;;;4983361;28;20420;-75
2022/02/26 10:48:57;;;;;;;5.37;2.13;;;7.90;99.90;;;;;;4960448;28;20455;-76
2022/02/26 10:51:34;;;;;;;6.53;2.27;;;8.00;99.90;;;;;;4966339;28;20473;-76
2022/02/26 10:54:02;;;;;;;8.30;2.77;;;8.30;99.90;;;;;;4976709;28;20415;-77
2022/02/26 10:56:37;;;;;;;18.30;3.50;;;8.60;99.90;;;;;;4971225;28;20515;-77
2022/02/26 10:59:08;;;;;;;4.87;2.23;;;9.30;99.90;;;;;;4975101;28;20772;-76
2022/02/26 11:01:35;;;;;;;14.10;3.27;;;10.00;99.90;;;;;;4971695;28;21064;-76
2022/02/26 11:04:02;;;;;;;5.17;2.87;;;10.20;99.90;;;;;;4969301;28;20981;-76
2022/02/26 11:06:28;;;;;;;5.23;1.90;;;10.40;99.90;;;;;;4970826;28;20436;-77
2022/02/26 11:08:54;;;;;;;11.20;2.40;;;10.30;99.90;;;;;;4968832;28;20426;-75
2022/02/26 11:11:22;;;;;;;5.47;1.93;;;9.80;99.90;;;;;;4970771;28;20468;-77
2022/02/26 11:13:50;;;;;;;6.20;2.07;;;9.70;99.90;;;;;;4970760;28;20416;-76
2022/02/26 11:16:18;;;;;;;4.10;2.00;;;9.90;99.90;;;;;;4970576;28;20527;-78
2022/02/26 11:18:46;;;;;;;6.30;2.27;;;10.00;99.90;;;;;;4970083;28;20452;-77
2022/02/26 11:21:16;;;;;;;4.90;1.30;;;10.00;99.90;;;;;;4970040;28;20446;-77
2022/02/26 11:23:43;;;;;;;5.40;2.13;;;10.20;99.90;;;;;;4988338;28;20435;-77
2022/02/26 11:26:11;;;;;;;8.00;2.27;;;9.60;99.90;;;;;;4986206;28;21000;-77
2022/02/26 11:28:41;;;;;;;4.40;2.20;;;9.50;99.90;;;;;;4973064;28;20440;-78
2022/02/26 11:31:09;;;;;;;5.03;2.87;;;9.40;99.90;;;;;;4973415;28;20521;-78
2022/02/26 11:33:36;;;;;;;6.47;1.93;;;9.70;99.90;;;;;;4966110;28;20436;-75
2022/02/26 11:36:04;;;;;;;8.20;2.40;;;9.50;99.90;;;;;;4980706;28;20432;-75
2022/02/26 11:38:35;;;;;;;9.17;2.20;;;9.50;99.90;;;;;;4967915;28;20426;-74
2022/02/26 11:41:28;;;;;;;6.50;2.10;;;9.40;99.90;;;;;;4966028;28;20593;-74
2022/02/26 11:43:56;;;;;;;5.20;2.13;;;9.30;99.90;;;;;;4967204;28;20423;-74
2022/02/26 11:46:21;;;;;;;4.00;1.20;;;9.80;99.90;;;;;;4966017;28;20424;-75
2022/02/26 11:48:48;;;;;;;6.23;2.20;;;9.90;99.90;;;;;;4967345;28;20440;-75
2022/02/26 11:51:15;;;;;;;5.30;2.30;;;9.80;99.90;;;;;;4969103;28;20213;-76
2022/02/26 11:53:47;;;;;;;7.90;2.23;;;9.90;99.90;;;;;;4969973;28;20432;-75
2022/02/26 11:56:13;;;;;;;3.27;1.73;;;9.80;99.90;;;;;;4985042;28;20429;-76
2022/02/26 11:58:42;;;;;;;5.33;2.20;;;9.70;99.90;;;;;;4988727;28;20422;-74
2022/02/26 12:01:13;;;;;;;9.33;1.80;;;9.40;99.90;;;;;;4936383;28;21356;-75
2022/02/26 12:03:40;;;;;;;9.50;2.03;;;9.00;99.90;;;;;;4882768;28;20650;-81
2022/02/26 12:06:09;;;;;;;4.80;1.80;;;8.90;99.90;;;;;;4894781;28;21201;-81
2022/02/26 12:08:55;;;;;;;10.73;3.33;;;8.70;99.90;;;;;;4871279;28;20651;-81
2022/02/26 12:11:20;;;;;;;9.57;2.33;;;8.70;99.90;;;;;;4903872;28;20794;-77
2022/02/26 12:14:37;;;;;;;15.93;2.20;;;8.60;99.90;;;;;;4882634;28;20638;-78
2022/02/26 12:17:08;;;;;;;7.60;1.60;;;8.40;99.90;;;;;;4892447;28;20494;-76
2022/02/26 12:19:47;;;;;;;3.43;1.53;;;8.40;99.90;;;;;;4887722;28;20851;-81
2022/02/26 12:22:12;;;;;;;7.30;2.70;;;8.30;99.90;;;;;;4914442;28;20820;-77
2022/02/26 12:24:53;;;;;;;7.87;2.23;;;8.30;99.90;;;;;;4980541;28;20437;-75
2022/02/26 12:27:34;;;;;;;9.60;2.03;;;8.00;99.90;;;;;;4974811;28;20190;-74
2022/02/26 12:30:14;;;;;;;5.10;1.90;;;7.90;99.90;;;;;;4964653;28;20436;-76
2022/02/26 12:33:02;;;;;;;4.40;1.77;;;7.80;99.90;;;;;;4957452;28;20492;-77
2022/02/26 12:35:35;;;;;;;4.40;1.50;;;7.70;99.90;;;;;;4973484;28;20452;-77
2022/02/26 12:38:01;;;;;;;8.20;2.73;;;7.50;99.90;;;;;;4973430;28;20439;-76
2022/02/26 12:40:30;;;;;;;4.97;1.57;;;7.20;99.90;;;;;;4918267;28;20748;-80
2022/02/26 12:43:06;;;;;;;11.33;2.50;;;7.10;99.90;;;;;;4906700;28;20484;-80
2022/02/26 12:45:43;;;;;;;5.07;1.67;;;7.20;99.90;;;;;;4883538;28;20696;-80
2022/02/26 12:48:10;;;;;;;3.67;1.37;;;7.30;99.90;;;;;;4887057;28;21191;-80
2022/02/26 12:50:37;;;;;;;7.93;1.73;;;7.50;99.90;;;;;;4886083;28;20839;-80
2022/02/26 12:53:04;;;;;;;10.50;5.40;;;7.60;99.90;;;;;;4897487;28;20877;-81
2022/02/26 12:55:32;;;;;;;7.37;2.20;;;7.90;99.90;;;;;;4892285;28;20574;-82
2022/02/26 12:57:59;;;;;;;8.63;2.20;;;8.10;99.90;;;;;;4875880;28;20702;-81
2022/02/26 13:00:30;;;;;;;8.80;2.53;;;8.00;99.90;;;;;;4871316;28;20667;-77
2022/02/26 13:03:03;;;;;;;9.57;1.93;;;8.10;99.90;;;;;;4864732;28;20611;-77
2022/02/26 13:05:33;;;;;;;5.67;2.17;;;8.20;99.90;;;;;;4865216;28;20908;-77
2022/02/26 13:08:02;;;;;;;6.40;1.80;;;8.40;99.90;;;;;;4866257;28;21094;-78
2022/02/26 13:10:38;;;;;;;14.50;2.77;;;8.20;99.90;;;;;;4864713;28;21155;-75
2022/02/26 13:13:10;;;;;;;4.60;1.70;;;7.90;99.90;;;;;;4867796;28;20829;-76
2022/02/26 13:15:38;;;;;;;5.27;2.93;;;8.00;99.90;;;;;;4885991;28;21145;-77
2022/02/26 13:18:04;;;;;;;5.77;2.53;;;8.10;99.90;;;;;;4908923;28;20713;-78
2022/02/26 13:20:48;;;;;;;5.70;2.27;;;8.00;99.90;;;;;;4901618;28;20878;-79
2022/02/26 13:23:19;;;;;;;8.17;2.57;;;7.90;99.90;;;;;;4896378;28;20723;-77
2022/02/26 13:26:06;;;;;;;10.13;2.77;;;7.70;99.90;;;;;;4887395;28;20518;-78
2022/02/26 13:28:33;;;;;;;8.07;2.30;;;7.60;99.90;;;;;;4917588;28;20578;-79
2022/02/26 13:30:59;;;;;;;6.63;2.07;;;7.60;99.90;;;;;;4880393;28;21316;-77
2022/02/26 13:33:28;;;;;;;7.33;2.20;;;7.60;99.90;;;;;;4871089;28;20665;-78
2022/02/26 13:35:54;;;;;;;5.37;2.13;;;7.60;99.90;;;;;;4868282;28;20424;-78
2022/02/26 13:38:27;;;;;;;5.00;2.40;;;7.60;99.90;;;;;;4870455;28;20604;-79
2022/02/26 13:40:57;;;;;;;7.50;3.00;;;7.60;99.90;;;;;;4873284;28;20778;-78
2022/02/26 13:43:23;;;;;;;10.43;2.40;;;7.70;99.90;;;;;;4868119;28;20723;-74
2022/02/26 13:46:27;;;;;;;4.70;2.60;;;7.70;99.90;;;;;;4910967;28;21064;-79
2022/02/26 13:49:00;;;;;;;5.80;1.80;;;7.60;99.90;;;;;;4884807;28;20482;-77
2022/02/26 13:51:34;;;;;;;4.17;1.60;;;7.30;99.90;;;;;;4865147;28;20799;-80
2022/02/26 13:54:01;;;;;;;9.37;2.03;;;7.20;99.90;;;;;;4865579;28;20956;-78
2022/02/26 13:56:57;;;;;;;8.40;1.80;;;7.10;99.90;;;;;;4894680;28;20744;-77
2022/02/26 13:59:29;;;;;;;6.97;2.10;;;6.90;99.90;;;;;;4922443;28;20521;-77
2022/02/26 14:01:56;;;;;;;6.93;1.73;;;6.90;99.90;;;;;;4855578;28;20617;-79
2022/02/26 14:04:24;;;;;;;12.83;2.10;;;6.70;99.90;;;;;;4867460;28;20854;-78
2022/02/26 14:06:53;;;;;;;4.47;1.53;;;6.60;99.90;;;;;;4868978;28;21006;-77
2022/02/26 14:09:21;;;;;;;4.80;1.53;;;6.40;99.90;;;;;;4861066;28;20598;-77
2022/02/26 14:11:56;;;;;;;4.67;1.33;;;6.20;99.90;;;;;;4872631;28;20642;-77
2022/02/26 14:14:30;;;;;;;6.10;1.70;;;6.20;99.90;;;;;;4868786;28;21195;-78
2022/02/26 14:17:01;;;;;;;5.23;1.10;;;6.20;99.90;;;;;;4848667;28;21110;-74
2022/02/26 14:19:31;;;;;;;6.27;1.23;;;6.20;99.90;;;;;;4874759;28;20828;-75
2022/02/26 14:21:58;;;;;;;2.97;1.43;;;6.20;99.90;;;;;;4860193;28;20687;-74
2022/02/26 14:24:34;;;;;;;9.80;1.53;;;6.30;99.90;;;;;;4878640;28;20710;-76
2022/02/26 14:27:03;;;;;;;18.73;6.47;;;6.50;99.90;;;;;;4880597;28;20905;-74
2022/02/26 14:29:31;;;;;;;4.30;1.47;;;6.50;99.90;;;;;;4930022;28;20501;-73
2022/02/26 14:32:05;;;;;;;6.50;1.70;;;6.50;99.90;;;;;;4974143;28;20489;-72
2022/02/26 14:34:31;;;;;;;11.13;1.53;;;6.50;99.90;;;;;;4974602;28;20528;-72
2022/02/26 14:36:57;;;;;;;7.43;1.17;;;6.50;99.90;;;;;;4975612;28;20462;-73
2022/02/26 14:39:23;;;;;;;5.40;1.80;;;6.50;99.90;;;;;;4975589;28;20937;-73
2022/02/26 14:41:51;;;;;;;4.17;1.20;;;6.40;99.90;;;;;;4975188;28;20211;-71
2022/02/26 14:44:22;;;;;;;3.83;1.47;;;6.30;99.90;;;;;;4974468;28;20494;-73
2022/02/26 14:46:49;;;;;;;6.93;1.37;;;6.30;99.90;;;;;;4974820;28;20992;-73
2022/02/26 14:49:14;;;;;;;5.00;1.33;;;6.30;99.90;;;;;;4975335;28;20519;-73
2022/02/26 14:51:40;;;;;;;4.83;1.33;;;6.30;99.90;;;;;;4975089;28;21003;-73
2022/02/26 14:54:06;;;;;;;2.60;1.00;;;6.30;99.90;;;;;;4974843;28;20703;-70
2022/02/26 14:56:31;;;;;;;3.83;1.37;;;6.30;99.90;;;;;;4974361;28;20234;-70
2022/02/26 14:58:57;;;;;;;5.80;1.63;;;6.30;99.90;;;;;;4955353;28;20207;-71
2022/02/26 15:01:23;;;;;;;5.37;1.80;;;6.30;99.90;;;;;;4955208;28;20579;-70
2022/02/26 15:03:48;;;;;;;8.00;1.60;;;6.30;99.90;;;;;;4971117;28;20497;-71
2022/02/26 15:06:14;;;;;;;2.50;1.10;;;6.40;99.90;;;;;;4955875;28;20217;-71
2022/02/26 15:08:39;;;;;;;3.57;1.17;;;6.50;99.90;;;;;;4971286;28;20287;-71
2022/02/26 15:11:05;;;;;;;6.73;1.63;;;6.50;99.90;;;;;;4939400;28;20227;-72
2022/02/26 15:13:31;;;;;;;2.40;1.30;;;6.50;99.90;;;;;;4972181;28;20740;-71
2022/02/26 15:15:56;;;;;;;4.27;1.20;;;6.50;99.90;;;;;;4971169;28;20219;-71
2022/02/26 15:18:22;;;;;;;5.53;1.20;;;6.50;99.90;;;;;;4971727;28;20206;-72
2022/02/26 15:20:49;;;;;;;2.27;1.10;;;6.50;99.90;;;;;;4970907;28;20218;-74
2022/02/26 15:23:14;;;;;;;4.73;2.03;;;6.60;99.90;;;;;;4972237;28;20200;-72
2022/02/26 15:25:40;;;;;;;2.53;1.00;;;6.60;99.90;;;;;;4939451;28;20829;-72
2022/02/26 15:28:06;;;;;;;5.80;1.57;;;6.60;99.90;;;;;;4973201;28;20203;-75
2022/02/26 15:30:32;;;;;;;2.87;1.47;;;6.50;99.90;;;;;;4973459;28;20483;-74
2022/02/26 15:32:58;;;;;;;4.90;1.67;;;6.50;99.90;;;;;;4973524;28;20308;-75
2022/02/26 15:35:24;;;;;;;10.13;1.63;;;6.40;99.90;;;;;;4991974;28;20540;-76
2022/02/26 15:37:49;;;;;;;5.50;1.67;;;6.40;99.90;;;;;;4974704;28;20216;-74
2022/02/26 15:40:15;;;;;;;4.47;1.43;;;6.30;99.90;;;;;;4974514;28;20219;-75
2022/02/26 15:42:41;;;;;;;2.23;1.30;;;6.30;99.90;;;;;;4958420;28;20634;-75
2022/02/26 15:45:07;;;;;;;5.23;1.50;;;6.20;99.90;;;;;;4972979;28;20209;-75
2022/02/26 15:47:32;;;;;;;9.53;1.77;;;6.20;99.90;;;;;;4974088;28;20268;-75
2022/02/26 15:50:01;;;;;;;3.23;1.13;;;6.10;99.90;;;;;;4894810;28;20933;-74
2022/02/26 15:52:29;;;;;;;3.80;1.43;;;6.00;99.90;;;;;;4888186;28;20954;-76
2022/02/26 15:54:55;;;;;;;6.90;1.40;;;6.00;99.90;;;;;;4862623;28;20711;-78
2022/02/26 15:57:28;;;;;;;12.70;1.67;;;6.00;99.90;;;;;;4882869;28;21382;-78
2022/02/26 15:59:57;;;;;;;10.80;1.90;;;6.00;99.90;;;;;;4898487;28;20679;-77
2022/02/26 16:02:51;;;;;;;4.23;1.40;;;5.90;99.90;;;;;;4891522;28;20797;-82
2022/02/26 16:05:23;;;;;;;3.53;1.23;;;5.90;99.90;;;;;;4907004;28;20640;-84
2022/02/26 16:08:25;;;;;;;8.90;1.33;;;5.90;99.90;;;;;;4933870;28;20461;-78
2022/02/26 16:10:51;;;;;;;2.67;1.87;;;5.80;99.90;;;;;;4917284;28;20465;-74
2022/02/26 16:13:17;;;;;;;4.40;1.17;;;5.80;99.90;;;;;;4972624;28;20418;-74
2022/02/26 16:15:42;;;;;;;4.03;1.70;;;5.80;99.90;;;;;;4990142;28;20945;-75
2022/02/26 16:18:08;;;;;;;4.10;1.27;;;5.80;99.90;;;;;;4974366;28;20195;-75
2022/02/26 16:20:34;;;;;;;5.70;1.70;;;5.70;99.90;;;;;;4974121;28;20186;-75
2022/02/26 16:22:59;;;;;;;4.83;1.50;;;5.70;99.90;;;;;;4973808;28;20632;-75
2022/02/26 16:25:25;;;;;;;3.90;1.20;;;5.70;99.90;;;;;;4973843;28;20189;-75
2022/02/26 16:27:51;;;;;;;6.00;1.57;;;5.60;99.90;;;;;;4974409;28;20213;-75
2022/02/26 16:30:17;;;;;;;6.13;2.33;;;5.60;99.90;;;;;;4973765;28;20800;-75
2022/02/26 16:32:43;;;;;;;6.13;1.43;;;5.50;99.90;;;;;;4973955;28;20213;-76
2022/02/26 16:35:10;;;;;;;3.23;1.43;;;5.50;99.90;;;;;;4972961;28;20427;-74
2022/02/26 16:37:36;;;;;;;3.93;1.47;;;5.50;99.90;;;;;;4971565;28;20400;-75
2022/02/26 16:40:03;;;;;;;8.70;2.23;;;5.50;99.90;;;;;;4974100;28;20420;-74
2022/02/26 16:42:28;;;;;;;5.47;1.50;;;5.50;99.90;;;;;;4973714;28;20416;-74
2022/02/26 16:44:56;;;;;;;7.23;1.70;;;5.50;99.90;;;;;;4973067;28;20397;-74
2022/02/26 16:47:22;;;;;;;9.23;2.00;;;5.50;99.90;;;;;;4972732;28;20416;-74
2022/02/26 16:49:49;;;;;;;5.90;1.70;;;5.40;99.90;;;;;;4973502;28;20269;-74
2022/02/26 16:52:17;;;;;;;3.90;1.43;;;5.40;99.90;;;;;;4973678;28;20443;-74
2022/02/26 16:54:44;;;;;;;6.93;1.90;;;5.40;99.90;;;;;;4990370;28;20498;-74
2022/02/26 16:57:10;;;;;;;5.40;1.43;;;5.30;99.90;;;;;;4973708;28;20413;-73
2022/02/26 16:59:35;;;;;;;7.23;1.50;;;5.30;99.90;;;;;;4973621;28;20403;-75
2022/02/26 17:02:01;;;;;;;9.10;1.67;;;5.30;99.90;;;;;;4973648;28;21027;-74
2022/02/26 17:04:27;;;;;;;5.47;1.60;;;5.30;99.90;;;;;;4972221;28;20190;-74
2022/02/26 17:06:52;;;;;;;5.30;1.93;;;5.30;99.90;;;;;;4973492;28;20267;-74
2022/02/26 17:09:18;;;;;;;6.10;2.30;;;5.30;99.90;;;;;;4973607;28;20457;-74
2022/02/26 17:11:44;;;;;;;7.30;2.03;;;5.30;99.90;;;;;;4972797;28;20208;-74
2022/02/26 17:14:09;;;;;;;3.00;1.77;;;5.20;99.90;;;;;;4972594;28;20424;-72
2022/02/26 17:16:35;;;;;;;86.40;39.03;;;5.20;99.90;;;;;;4973600;28;20641;-74
2022/02/26 17:19:01;;;;;;;13.37;4.07;;;5.20;99.90;;;;;;4973685;28;20186;-73
2022/02/26 17:21:26;;;;;;;8.53;3.80;;;5.20;99.90;;;;;;4973051;28;20206;-74
2022/02/26 17:23:53;;;;;;;8.00;4.27;;;5.20;99.90;;;;;;4972205;28;20267;-73
2022/02/26 17:26:19;;;;;;;6.73;2.37;;;5.20;99.90;;;;;;4973221;28;20185;-73
2022/02/26 17:28:46;;;;;;;5.60;2.67;;;5.30;99.90;;;;;;4973355;28;20902;-75
2022/02/26 17:31:15;;;;;;;7.90;2.93;;;5.20;99.90;;;;;;4972820;28;20446;-75